sensor_id;sensor_type;location;lat;lon;timestamp;P1;durP1;ratioP1;P2;durP2;ratioP2
13847;SDS011;6994;49.752;6.094;2022-09-01T00:02:15;13.77;;;10.25;;
13847;SDS011;6994;49.752;6.094;2022-09-01T00:04:42;10.05;;;9.05;;
13847;SDS011;6994;49.752;6.094;2022-09-01T00:07:09;12.85;;;11.70;;
13847;SDS011;6994;49.752;6.094;2022-09-01T00:09:36;10.82;;;9.60;;
13847;SDS011;6994;49.752;6.094;2022-09-01T00:12:04;11.07;;;9.98;;
13847;SDS011;6994;49.752;6.094;2022-09-01T00:14:33;10.98;;;8.57;;
13847;SDS011;6994;49.752;6.094;2022-09-01T00:16:59;10.13;;;9.13;;
13847;SDS011;6994;49.752;6.094;2022-09-01T00:19:26;10.15;;;9.15;;
13847;SDS011;6994;49.752;6.094;2022-09-01T00:21:53;10.73;;;9.63;;
13847;SDS011;6994;49.752;6.094;2022-09-01T00:24:20;11.80;;;10.60;;
13847;SDS011;6994;49.752;6.094;2022-09-01T00:26:47;10.52;;;9.52;;
13847;SDS011;6994;49.752;6.094;2022-09-01T00:29:15;11.48;;;9.98;;
13847;SDS011;6994;49.752;6.094;2022-09-01T00:31:43;12.32;;;9.93;;
13847;SDS011;6994;49.752;6.094;2022-09-01T00:34:10;11.40;;;10.25;;
13847;SDS011;6994;49.752;6.094;2022-09-01T00:36:37;34.28;;;11.38;;
13847;SDS011;6994;49.752;6.094;2022-09-01T00:39:05;16.35;;;14.50;;
13847;SDS011;6994;49.752;6.094;2022-09-01T00:41:33;12.68;;;11.35;;
13847;SDS011;6994;49.752;6.094;2022-09-01T00:44:00;11.52;;;10.38;;
13847;SDS011;6994;49.752;6.094;2022-09-01T00:46:32;12.27;;;10.90;;
13847;SDS011;6994;49.752;6.094;2022-09-01T00:49:11;13.35;;;12.05;;
13847;SDS011;6994;49.752;6.094;2022-09-01T00:51:40;11.90;;;10.70;;
13847;SDS011;6994;49.752;6.094;2022-09-01T00:54:07;16.37;;;14.57;;
13847;SDS011;6994;49.752;6.094;2022-09-01T00:56:34;12.48;;;11.18;;
13847;SDS011;6994;49.752;6.094;2022-09-01T00:59:01;13.75;;;11.07;;
13847;SDS011;6994;49.752;6.094;2022-09-01T01:01:28;14.07;;;11.90;;
13847;SDS011;6994;49.752;6.094;2022-09-01T01:03:55;13.62;;;11.45;;
13847;SDS011;6994;49.752;6.094;2022-09-01T01:06:23;13.95;;;12.20;;
13847;SDS011;6994;49.752;6.094;2022-09-01T01:08:50;12.40;;;11.02;;
13847;SDS011;6994;49.752;6.094;2022-09-01T01:11:23;13.10;;;11.68;;
13847;SDS011;6994;49.752;6.094;2022-09-01T01:16:27;13.35;;;11.63;;
13847;SDS011;6994;49.752;6.094;2022-09-01T01:18:53;14.30;;;11.27;;
13847;SDS011;6994;49.752;6.094;2022-09-01T01:21:24;12.77;;;10.35;;
13847;SDS011;6994;49.752;6.094;2022-09-01T01:26:45;13.77;;;11.95;;
13847;SDS011;6994;49.752;6.094;2022-09-01T01:29:13;13.80;;;12.43;;
13847;SDS011;6994;49.752;6.094;2022-09-01T01:31:40;15.68;;;12.50;;
13847;SDS011;6994;49.752;6.094;2022-09-01T01:34:07;14.30;;;11.95;;
13847;SDS011;6994;49.752;6.094;2022-09-01T01:36:35;16.42;;;13.35;;
13847;SDS011;6994;49.752;6.094;2022-09-01T01:39:09;20.37;;;12.65;;
13847;SDS011;6994;49.752;6.094;2022-09-01T01:41:36;13.57;;;12.18;;
13847;SDS011;6994;49.752;6.094;2022-09-01T01:44:03;13.82;;;11.48;;
13847;SDS011;6994;49.752;6.094;2022-09-01T01:46:30;13.73;;;12.25;;
13847;SDS011;6994;49.752;6.094;2022-09-01T01:48:58;13.23;;;11.80;;
13847;SDS011;6994;49.752;6.094;2022-09-01T01:51:25;14.68;;;12.35;;
13847;SDS011;6994;49.752;6.094;2022-09-01T01:53:53;14.65;;;12.20;;
13847;SDS011;6994;49.752;6.094;2022-09-01T01:56:20;18.65;;;15.40;;
13847;SDS011;6994;49.752;6.094;2022-09-01T01:58:47;14.80;;;13.27;;
13847;SDS011;6994;49.752;6.094;2022-09-01T02:01:14;14.23;;;12.60;;
13847;SDS011;6994;49.752;6.094;2022-09-01T02:03:41;14.77;;;12.82;;
13847;SDS011;6994;49.752;6.094;2022-09-01T02:08:19;14.52;;;12.68;;
13847;SDS011;6994;49.752;6.094;2022-09-01T02:10:46;17.83;;;16.02;;
13847;SDS011;6994;49.752;6.094;2022-09-01T02:13:13;16.02;;;12.70;;
13847;SDS011;6994;49.752;6.094;2022-09-01T02:15:44;14.18;;;11.45;;
13847;SDS011;6994;49.752;6.094;2022-09-01T02:18:14;13.85;;;12.05;;
13847;SDS011;6994;49.752;6.094;2022-09-01T02:20:41;13.60;;;12.15;;
13847;SDS011;6994;49.752;6.094;2022-09-01T02:23:08;12.63;;;11.32;;
13847;SDS011;6994;49.752;6.094;2022-09-01T02:25:39;13.40;;;11.95;;
13847;SDS011;6994;49.752;6.094;2022-09-01T02:28:02;14.45;;;13.13;;
13847;SDS011;6994;49.752;6.094;2022-09-01T02:30:29;13.00;;;11.25;;
13847;SDS011;6994;49.752;6.094;2022-09-01T02:32:56;11.65;;;10.45;;
13847;SDS011;6994;49.752;6.094;2022-09-01T02:35:24;11.52;;;9.30;;
13847;SDS011;6994;49.752;6.094;2022-09-01T02:37:51;15.93;;;14.23;;
13847;SDS011;6994;49.752;6.094;2022-09-01T02:40:19;13.32;;;11.93;;
13847;SDS011;6994;49.752;6.094;2022-09-01T02:42:46;11.98;;;10.73;;
13847;SDS011;6994;49.752;6.094;2022-09-01T02:45:13;11.60;;;10.27;;
13847;SDS011;6994;49.752;6.094;2022-09-01T02:47:41;15.77;;;13.73;;
13847;SDS011;6994;49.752;6.094;2022-09-01T02:50:08;11.57;;;10.50;;
13847;SDS011;6994;49.752;6.094;2022-09-01T02:52:35;12.02;;;9.95;;
13847;SDS011;6994;49.752;6.094;2022-09-01T02:55:03;11.98;;;10.77;;
13847;SDS011;6994;49.752;6.094;2022-09-01T02:57:30;15.60;;;13.18;;
13847;SDS011;6994;49.752;6.094;2022-09-01T02:59:57;11.90;;;10.68;;
13847;SDS011;6994;49.752;6.094;2022-09-01T03:02:24;13.18;;;10.63;;
13847;SDS011;6994;49.752;6.094;2022-09-01T03:04:51;13.73;;;12.43;;
13847;SDS011;6994;49.752;6.094;2022-09-01T03:07:20;12.15;;;10.07;;
13847;SDS011;6994;49.752;6.094;2022-09-01T03:09:48;10.73;;;9.73;;
13847;SDS011;6994;49.752;6.094;2022-09-01T03:12:15;13.40;;;10.40;;
13847;SDS011;6994;49.752;6.094;2022-09-01T03:14:42;12.60;;;11.30;;
13847;SDS011;6994;49.752;6.094;2022-09-01T03:17:09;12.27;;;10.93;;
13847;SDS011;6994;49.752;6.094;2022-09-01T03:19:36;12.48;;;10.90;;
13847;SDS011;6994;49.752;6.094;2022-09-01T03:22:04;11.82;;;10.63;;
13847;SDS011;6994;49.752;6.094;2022-09-01T03:24:31;19.08;;;16.12;;
13847;SDS011;6994;49.752;6.094;2022-09-01T03:26:58;15.15;;;13.60;;
13847;SDS011;6994;49.752;6.094;2022-09-01T03:29:25;17.52;;;15.30;;
13847;SDS011;6994;49.752;6.094;2022-09-01T03:31:52;15.27;;;12.30;;
13847;SDS011;6994;49.752;6.094;2022-09-01T03:34:20;13.50;;;11.27;;
13847;SDS011;6994;49.752;6.094;2022-09-01T03:36:47;13.32;;;10.98;;
13847;SDS011;6994;49.752;6.094;2022-09-01T03:39:17;16.15;;;11.73;;
13847;SDS011;6994;49.752;6.094;2022-09-01T03:41:44;12.18;;;10.98;;
13847;SDS011;6994;49.752;6.094;2022-09-01T03:44:12;15.55;;;13.65;;
13847;SDS011;6994;49.752;6.094;2022-09-01T03:46:38;13.60;;;12.23;;
13847;SDS011;6994;49.752;6.094;2022-09-01T03:49:06;13.25;;;10.88;;
13847;SDS011;6994;49.752;6.094;2022-09-01T03:51:33;13.80;;;9.75;;
13847;SDS011;6994;49.752;6.094;2022-09-01T03:54:00;14.25;;;9.95;;
13847;SDS011;6994;49.752;6.094;2022-09-01T03:56:27;12.57;;;11.48;;
13847;SDS011;6994;49.752;6.094;2022-09-01T03:58:56;11.07;;;10.00;;
13847;SDS011;6994;49.752;6.094;2022-09-01T04:01:22;12.88;;;11.15;;
13847;SDS011;6994;49.752;6.094;2022-09-01T04:03:49;11.15;;;10.13;;
13847;SDS011;6994;49.752;6.094;2022-09-01T04:06:16;10.98;;;9.38;;
13847;SDS011;6994;49.752;6.094;2022-09-01T04:08:44;10.75;;;9.55;;
13847;SDS011;6994;49.752;6.094;2022-09-01T04:11:12;12.20;;;10.35;;
13847;SDS011;6994;49.752;6.094;2022-09-01T04:13:44;13.30;;;12.00;;
13847;SDS011;6994;49.752;6.094;2022-09-01T04:16:24;11.65;;;10.65;;
13847;SDS011;6994;49.752;6.094;2022-09-01T04:18:44;10.73;;;9.63;;
13847;SDS011;6994;49.752;6.094;2022-09-01T04:21:11;11.75;;;10.35;;
13847;SDS011;6994;49.752;6.094;2022-09-01T04:23:38;14.60;;;13.20;;
13847;SDS011;6994;49.752;6.094;2022-09-01T04:26:06;13.95;;;12.45;;
13847;SDS011;6994;49.752;6.094;2022-09-01T04:28:39;13.95;;;10.48;;
13847;SDS011;6994;49.752;6.094;2022-09-01T04:31:08;10.48;;;9.48;;
13847;SDS011;6994;49.752;6.094;2022-09-01T04:33:36;11.65;;;10.43;;
13847;SDS011;6994;49.752;6.094;2022-09-01T04:36:16;11.43;;;10.43;;
13847;SDS011;6994;49.752;6.094;2022-09-01T04:38:41;10.57;;;9.45;;
13847;SDS011;6994;49.752;6.094;2022-09-01T04:41:08;16.87;;;15.27;;
13847;SDS011;6994;49.752;6.094;2022-09-01T04:43:36;16.50;;;14.30;;
13847;SDS011;6994;49.752;6.094;2022-09-01T04:46:03;14.68;;;13.10;;
13847;SDS011;6994;49.752;6.094;2022-09-01T04:48:30;15.70;;;13.80;;
13847;SDS011;6994;49.752;6.094;2022-09-01T04:50:58;13.90;;;11.80;;
13847;SDS011;6994;49.752;6.094;2022-09-01T04:53:25;13.35;;;11.60;;
13847;SDS011;6994;49.752;6.094;2022-09-01T04:55:52;13.18;;;11.07;;
13847;SDS011;6994;49.752;6.094;2022-09-01T04:58:19;13.77;;;12.18;;
13847;SDS011;6994;49.752;6.094;2022-09-01T05:00:47;13.38;;;12.10;;
13847;SDS011;6994;49.752;6.094;2022-09-01T05:03:14;14.95;;;11.80;;
13847;SDS011;6994;49.752;6.094;2022-09-01T05:05:42;12.85;;;11.48;;
13847;SDS011;6994;49.752;6.094;2022-09-01T05:08:09;12.30;;;11.10;;
13847;SDS011;6994;49.752;6.094;2022-09-01T05:10:37;14.20;;;11.70;;
13847;SDS011;6994;49.752;6.094;2022-09-01T05:13:03;13.35;;;12.07;;
13847;SDS011;6994;49.752;6.094;2022-09-01T05:15:30;12.02;;;10.68;;
13847;SDS011;6994;49.752;6.094;2022-09-01T05:17:58;11.75;;;10.63;;
13847;SDS011;6994;49.752;6.094;2022-09-01T05:20:25;12.43;;;11.23;;
13847;SDS011;6994;49.752;6.094;2022-09-01T05:22:52;13.80;;;12.25;;
13847;SDS011;6994;49.752;6.094;2022-09-01T05:25:20;16.70;;;12.30;;
13847;SDS011;6994;49.752;6.094;2022-09-01T05:27:47;13.40;;;11.93;;
13847;SDS011;6994;49.752;6.094;2022-09-01T05:30:17;13.25;;;11.88;;
13847;SDS011;6994;49.752;6.094;2022-09-01T05:32:44;14.32;;;11.38;;
13847;SDS011;6994;49.752;6.094;2022-09-01T05:35:11;12.50;;;11.40;;
13847;SDS011;6994;49.752;6.094;2022-09-01T05:37:38;17.08;;;14.50;;
13847;SDS011;6994;49.752;6.094;2022-09-01T05:40:07;13.30;;;11.73;;
13847;SDS011;6994;49.752;6.094;2022-09-01T05:42:33;12.60;;;11.30;;
13847;SDS011;6994;49.752;6.094;2022-09-01T05:45:00;12.43;;;10.90;;
13847;SDS011;6994;49.752;6.094;2022-09-01T05:47:27;12.23;;;10.50;;
13847;SDS011;6994;49.752;6.094;2022-09-01T05:49:55;15.18;;;13.68;;
13847;SDS011;6994;49.752;6.094;2022-09-01T05:52:22;12.82;;;10.88;;
13847;SDS011;6994;49.752;6.094;2022-09-01T05:54:49;14.13;;;10.70;;
13847;SDS011;6994;49.752;6.094;2022-09-01T05:57:16;11.10;;;10.10;;
13847;SDS011;6994;49.752;6.094;2022-09-01T05:59:43;13.27;;;10.63;;
13847;SDS011;6994;49.752;6.094;2022-09-01T06:02:11;11.98;;;10.77;;
13847;SDS011;6994;49.752;6.094;2022-09-01T06:04:39;12.65;;;10.95;;
13847;SDS011;6994;49.752;6.094;2022-09-01T06:07:12;11.63;;;10.52;;
13847;SDS011;6994;49.752;6.094;2022-09-01T06:09:39;14.87;;;11.38;;
13847;SDS011;6994;49.752;6.094;2022-09-01T06:12:06;11.57;;;10.50;;
13847;SDS011;6994;49.752;6.094;2022-09-01T06:14:33;17.87;;;11.40;;
13847;SDS011;6994;49.752;6.094;2022-09-01T06:17:00;13.27;;;10.48;;
13847;SDS011;6994;49.752;6.094;2022-09-01T06:19:27;10.93;;;9.93;;
13847;SDS011;6994;49.752;6.094;2022-09-01T06:21:54;10.27;;;9.23;;
13847;SDS011;6994;49.752;6.094;2022-09-01T06:24:22;14.87;;;10.10;;
13847;SDS011;6994;49.752;6.094;2022-09-01T06:26:50;10.65;;;9.68;;
13847;SDS011;6994;49.752;6.094;2022-09-01T06:29:17;10.35;;;9.35;;
13847;SDS011;6994;49.752;6.094;2022-09-01T06:31:44;9.52;;;8.38;;
13847;SDS011;6994;49.752;6.094;2022-09-01T06:34:11;10.57;;;9.50;;
13847;SDS011;6994;49.752;6.094;2022-09-01T06:36:39;9.25;;;8.35;;
13847;SDS011;6994;49.752;6.094;2022-09-01T06:39:06;9.50;;;7.70;;
13847;SDS011;6994;49.752;6.094;2022-09-01T06:41:33;7.03;;;6.30;;
13847;SDS011;6994;49.752;6.094;2022-09-01T06:44:01;7.25;;;6.65;;
13847;SDS011;6994;49.752;6.094;2022-09-01T06:46:28;12.40;;;6.57;;
13847;SDS011;6994;49.752;6.094;2022-09-01T06:48:55;7.32;;;6.32;;
13847;SDS011;6994;49.752;6.094;2022-09-01T06:51:23;7.07;;;6.37;;
13847;SDS011;6994;49.752;6.094;2022-09-01T06:53:50;7.68;;;5.28;;
13847;SDS011;6994;49.752;6.094;2022-09-01T06:56:17;6.45;;;5.85;;
13847;SDS011;6994;49.752;6.094;2022-09-01T06:58:44;5.85;;;5.35;;
13847;SDS011;6994;49.752;6.094;2022-09-01T07:01:11;6.22;;;5.72;;
13847;SDS011;6994;49.752;6.094;2022-09-01T07:03:38;5.65;;;5.15;;
13847;SDS011;6994;49.752;6.094;2022-09-01T07:06:06;5.85;;;5.10;;
13847;SDS011;6994;49.752;6.094;2022-09-01T07:08:34;5.62;;;5.12;;
13847;SDS011;6994;49.752;6.094;2022-09-01T07:11:02;5.32;;;4.87;;
13847;SDS011;6994;49.752;6.094;2022-09-01T07:13:30;7.03;;;5.95;;
13847;SDS011;6994;49.752;6.094;2022-09-01T07:15:58;5.37;;;4.95;;
13847;SDS011;6994;49.752;6.094;2022-09-01T07:18:25;8.27;;;4.78;;
13847;SDS011;6994;49.752;6.094;2022-09-01T07:20:52;4.85;;;4.37;;
13847;SDS011;6994;49.752;6.094;2022-09-01T07:23:19;7.37;;;4.22;;
13847;SDS011;6994;49.752;6.094;2022-09-01T07:25:47;5.72;;;4.07;;
13847;SDS011;6994;49.752;6.094;2022-09-01T07:28:14;6.87;;;4.50;;
13847;SDS011;6994;49.752;6.094;2022-09-01T07:30:42;4.85;;;4.45;;
13847;SDS011;6994;49.752;6.094;2022-09-01T07:33:08;6.28;;;4.75;;
13847;SDS011;6994;49.752;6.094;2022-09-01T07:35:35;4.25;;;3.85;;
13847;SDS011;6994;49.752;6.094;2022-09-01T07:38:03;5.28;;;4.18;;
13847;SDS011;6994;49.752;6.094;2022-09-01T07:40:30;4.32;;;3.92;;
13847;SDS011;6994;49.752;6.094;2022-09-01T07:42:57;4.82;;;3.72;;
13847;SDS011;6994;49.752;6.094;2022-09-01T07:45:24;4.05;;;3.50;;
13847;SDS011;6994;49.752;6.094;2022-09-01T07:47:51;3.75;;;3.45;;
13847;SDS011;6994;49.752;6.094;2022-09-01T07:50:19;4.28;;;3.87;;
13847;SDS011;6994;49.752;6.094;2022-09-01T07:52:46;4.22;;;3.78;;
13847;SDS011;6994;49.752;6.094;2022-09-01T07:55:14;3.72;;;3.42;;
13847;SDS011;6994;49.752;6.094;2022-09-01T07:57:41;4.18;;;3.78;;
13847;SDS011;6994;49.752;6.094;2022-09-01T08:00:12;5.15;;;3.70;;
13847;SDS011;6994;49.752;6.094;2022-09-01T08:02:36;5.53;;;3.60;;
13847;SDS011;6994;49.752;6.094;2022-09-01T08:05:07;5.57;;;3.17;;
13847;SDS011;6994;49.752;6.094;2022-09-01T08:07:37;3.70;;;3.08;;
13847;SDS011;6994;49.752;6.094;2022-09-01T08:10:01;3.75;;;2.97;;
13847;SDS011;6994;49.752;6.094;2022-09-01T08:12:28;4.57;;;3.40;;
13847;SDS011;6994;49.752;6.094;2022-09-01T08:14:55;6.70;;;2.95;;
13847;SDS011;6994;49.752;6.094;2022-09-01T08:17:22;3.53;;;2.60;;
13847;SDS011;6994;49.752;6.094;2022-09-01T08:19:50;4.10;;;3.30;;
13847;SDS011;6994;49.752;6.094;2022-09-01T08:22:18;3.28;;;2.97;;
13847;SDS011;6994;49.752;6.094;2022-09-01T08:24:46;5.82;;;3.40;;
13847;SDS011;6994;49.752;6.094;2022-09-01T08:27:13;2.62;;;2.42;;
13847;SDS011;6994;49.752;6.094;2022-09-01T08:29:41;3.50;;;3.20;;
13847;SDS011;6994;49.752;6.094;2022-09-01T08:32:08;3.50;;;3.00;;
13847;SDS011;6994;49.752;6.094;2022-09-01T08:34:35;5.82;;;5.28;;
13847;SDS011;6994;49.752;6.094;2022-09-01T08:37:03;4.25;;;3.85;;
13847;SDS011;6994;49.752;6.094;2022-09-01T08:39:29;4.12;;;3.67;;
13847;SDS011;6994;49.752;6.094;2022-09-01T08:44:40;3.00;;;2.80;;
13847;SDS011;6994;49.752;6.094;2022-09-01T08:47:08;5.30;;;3.42;;
13847;SDS011;6994;49.752;6.094;2022-09-01T08:49:35;3.50;;;3.15;;
13847;SDS011;6994;49.752;6.094;2022-09-01T08:54:47;2.97;;;2.78;;
13847;SDS011;6994;49.752;6.094;2022-09-01T08:57:38;3.20;;;2.28;;
13847;SDS011;6994;49.752;6.094;2022-09-01T08:59:48;5.53;;;2.83;;
13847;SDS011;6994;49.752;6.094;2022-09-01T09:02:32;2.90;;;2.70;;
13847;SDS011;6994;49.752;6.094;2022-09-01T09:10:46;3.83;;;3.37;;
13847;SDS011;6994;49.752;6.094;2022-09-01T09:13:21;4.12;;;2.80;;
13847;SDS011;6994;49.752;6.094;2022-09-01T09:15:59;4.57;;;2.90;;
13847;SDS011;6994;49.752;6.094;2022-09-01T09:18:32;7.95;;;3.55;;
13847;SDS011;6994;49.752;6.094;2022-09-01T09:21:01;3.05;;;2.78;;
13847;SDS011;6994;49.752;6.094;2022-09-01T09:23:30;5.00;;;2.78;;
13847;SDS011;6994;49.752;6.094;2022-09-01T09:25:56;3.65;;;3.15;;
13847;SDS011;6994;49.752;6.094;2022-09-01T09:28:23;2.67;;;2.47;;
13847;SDS011;6994;49.752;6.094;2022-09-01T09:30:50;3.85;;;2.80;;
13847;SDS011;6994;49.752;6.094;2022-09-01T09:33:36;3.95;;;2.80;;
13847;SDS011;6994;49.752;6.094;2022-09-01T09:36:16;4.07;;;2.97;;
13847;SDS011;6994;49.752;6.094;2022-09-01T09:38:42;5.18;;;3.10;;
13847;SDS011;6994;49.752;6.094;2022-09-01T09:41:16;2.83;;;2.47;;
13847;SDS011;6994;49.752;6.094;2022-09-01T09:43:45;4.85;;;2.37;;
13847;SDS011;6994;49.752;6.094;2022-09-01T09:46:26;3.42;;;2.47;;
13847;SDS011;6994;49.752;6.094;2022-09-01T09:51:38;3.00;;;2.70;;
13847;SDS011;6994;49.752;6.094;2022-09-01T09:54:16;3.22;;;2.65;;
13847;SDS011;6994;49.752;6.094;2022-09-01T09:59:33;2.47;;;2.33;;
13847;SDS011;6994;49.752;6.094;2022-09-01T10:02:02;3.50;;;2.60;;
13847;SDS011;6994;49.752;6.094;2022-09-01T10:04:31;3.17;;;2.55;;
13847;SDS011;6994;49.752;6.094;2022-09-01T10:06:57;3.62;;;3.33;;
13847;SDS011;6994;49.752;6.094;2022-09-01T10:11:54;4.90;;;3.30;;
13847;SDS011;6994;49.752;6.094;2022-09-01T10:14:22;2.87;;;2.67;;
13847;SDS011;6994;49.752;6.094;2022-09-01T10:16:49;2.85;;;2.65;;
13847;SDS011;6994;49.752;6.094;2022-09-01T10:19:15;4.57;;;2.90;;
13847;SDS011;6994;49.752;6.094;2022-09-01T10:21:43;2.67;;;2.47;;
13847;SDS011;6994;49.752;6.094;2022-09-01T10:26:50;2.72;;;2.53;;
13847;SDS011;6994;49.752;6.094;2022-09-01T10:29:21;3.70;;;3.28;;
13847;SDS011;6994;49.752;6.094;2022-09-01T10:31:50;3.55;;;2.83;;
13847;SDS011;6994;49.752;6.094;2022-09-01T10:34:17;3.70;;;3.30;;
13847;SDS011;6994;49.752;6.094;2022-09-01T10:36:44;3.28;;;2.97;;
13847;SDS011;6994;49.752;6.094;2022-09-01T10:39:15;3.25;;;2.95;;
13847;SDS011;6994;49.752;6.094;2022-09-01T10:41:43;2.67;;;2.47;;
13847;SDS011;6994;49.752;6.094;2022-09-01T10:46:48;3.03;;;2.72;;
13847;SDS011;6994;49.752;6.094;2022-09-01T10:49:19;2.92;;;2.60;;
13847;SDS011;6994;49.752;6.094;2022-09-01T10:51:45;3.25;;;3.03;;
13847;SDS011;6994;49.752;6.094;2022-09-01T10:57:53;4.07;;;2.75;;
13847;SDS011;6994;49.752;6.094;2022-09-01T10:59:34;3.83;;;3.12;;
13847;SDS011;6994;49.752;6.094;2022-09-01T11:02:18;3.00;;;2.70;;
13847;SDS011;6994;49.752;6.094;2022-09-01T11:10:08;3.03;;;2.78;;
13847;SDS011;6994;49.752;6.094;2022-09-01T11:12:43;3.47;;;2.97;;
13847;SDS011;6994;49.752;6.094;2022-09-01T11:20:21;3.28;;;2.97;;
13847;SDS011;6994;49.752;6.094;2022-09-01T11:22:39;5.18;;;2.80;;
13847;SDS011;6994;49.752;6.094;2022-09-01T11:25:51;2.50;;;2.28;;
13847;SDS011;6994;49.752;6.094;2022-09-01T11:30:19;3.42;;;2.90;;
13847;SDS011;6994;49.752;6.094;2022-09-01T11:32:49;3.42;;;3.12;;
13847;SDS011;6994;49.752;6.094;2022-09-01T11:35:16;5.12;;;4.65;;
13847;SDS011;6994;49.752;6.094;2022-09-01T11:37:46;2.40;;;2.20;;
13847;SDS011;6994;49.752;6.094;2022-09-01T11:40:11;4.55;;;2.62;;
13847;SDS011;6994;49.752;6.094;2022-09-01T11:42:40;2.22;;;2.08;;
13847;SDS011;6994;49.752;6.094;2022-09-01T11:45:12;3.60;;;2.08;;
13847;SDS011;6994;49.752;6.094;2022-09-01T11:47:43;2.95;;;2.55;;
13847;SDS011;6994;49.752;6.094;2022-09-01T11:52:42;3.95;;;2.30;;
13847;SDS011;6994;49.752;6.094;2022-09-01T11:55:09;3.25;;;2.97;;
13847;SDS011;6994;49.752;6.094;2022-09-01T11:57:37;2.37;;;2.17;;
13847;SDS011;6994;49.752;6.094;2022-09-01T12:00:07;2.90;;;2.70;;
13847;SDS011;6994;49.752;6.094;2022-09-01T12:02:35;3.12;;;2.30;;
13847;SDS011;6994;49.752;6.094;2022-09-01T12:05:01;4.57;;;2.53;;
13847;SDS011;6994;49.752;6.094;2022-09-01T12:07:31;3.33;;;2.53;;
13847;SDS011;6994;49.752;6.094;2022-09-01T12:10:02;2.35;;;2.08;;
13847;SDS011;6994;49.752;6.094;2022-09-01T12:12:31;3.45;;;2.17;;
13847;SDS011;6994;49.752;6.094;2022-09-01T12:15:01;3.50;;;2.42;;
13847;SDS011;6994;49.752;6.094;2022-09-01T12:17:30;2.75;;;2.30;;
13847;SDS011;6994;49.752;6.094;2022-09-01T12:22:47;3.17;;;2.87;;
13847;SDS011;6994;49.752;6.094;2022-09-01T12:25:20;3.62;;;2.85;;
13847;SDS011;6994;49.752;6.094;2022-09-01T12:27:47;3.33;;;2.97;;
13847;SDS011;6994;49.752;6.094;2022-09-01T12:30:14;3.35;;;2.65;;
13847;SDS011;6994;49.752;6.094;2022-09-01T12:32:41;2.80;;;2.60;;
13847;SDS011;6994;49.752;6.094;2022-09-01T12:35:21;2.85;;;2.65;;
13847;SDS011;6994;49.752;6.094;2022-09-01T12:37:51;3.70;;;3.10;;
13847;SDS011;6994;49.752;6.094;2022-09-01T12:40:29;2.80;;;2.42;;
13847;SDS011;6994;49.752;6.094;2022-09-01T12:42:53;3.05;;;2.75;;
13847;SDS011;6994;49.752;6.094;2022-09-01T12:45:39;3.08;;;2.87;;
13847;SDS011;6994;49.752;6.094;2022-09-01T12:48:24;6.32;;;2.97;;
13847;SDS011;6994;49.752;6.094;2022-09-01T12:50:50;2.70;;;2.50;;
13847;SDS011;6994;49.752;6.094;2022-09-01T12:53:18;5.35;;;2.58;;
13847;SDS011;6994;49.752;6.094;2022-09-01T12:55:55;2.72;;;2.40;;
13847;SDS011;6994;49.752;6.094;2022-09-01T12:58:22;2.95;;;2.75;;
13847;SDS011;6994;49.752;6.094;2022-09-01T13:01:06;2.50;;;2.30;;
13847;SDS011;6994;49.752;6.094;2022-09-01T13:03:33;2.70;;;2.37;;
13847;SDS011;6994;49.752;6.094;2022-09-01T13:06:01;3.03;;;2.72;;
13847;SDS011;6994;49.752;6.094;2022-09-01T13:08:31;3.08;;;2.87;;
13847;SDS011;6994;49.752;6.094;2022-09-01T13:11:00;3.12;;;2.80;;
13847;SDS011;6994;49.752;6.094;2022-09-01T13:13:25;7.95;;;2.55;;
13847;SDS011;6994;49.752;6.094;2022-09-01T13:15:53;3.22;;;2.40;;
13847;SDS011;6994;49.752;6.094;2022-09-01T13:18:20;3.80;;;2.90;;
13847;SDS011;6994;49.752;6.094;2022-09-01T13:20:47;3.05;;;2.70;;
13847;SDS011;6994;49.752;6.094;2022-09-01T13:23:16;3.45;;;2.58;;
13847;SDS011;6994;49.752;6.094;2022-09-01T13:25:43;4.78;;;2.62;;
13847;SDS011;6994;49.752;6.094;2022-09-01T13:28:11;4.90;;;4.50;;
13847;SDS011;6994;49.752;6.094;2022-09-01T13:30:39;2.95;;;2.22;;
13847;SDS011;6994;49.752;6.094;2022-09-01T13:33:07;2.42;;;2.22;;
13847;SDS011;6994;49.752;6.094;2022-09-01T13:35:35;3.22;;;2.53;;
13847;SDS011;6994;49.752;6.094;2022-09-01T13:38:02;3.45;;;2.90;;
13847;SDS011;6994;49.752;6.094;2022-09-01T13:40:29;4.68;;;2.40;;
13847;SDS011;6994;49.752;6.094;2022-09-01T13:42:56;3.10;;;2.40;;
13847;SDS011;6994;49.752;6.094;2022-09-01T13:45:24;3.17;;;2.17;;
13847;SDS011;6994;49.752;6.094;2022-09-01T13:47:51;3.78;;;2.35;;
13847;SDS011;6994;49.752;6.094;2022-09-01T13:50:19;2.50;;;2.30;;
13847;SDS011;6994;49.752;6.094;2022-09-01T13:52:46;3.67;;;2.60;;
13847;SDS011;6994;49.752;6.094;2022-09-01T13:55:14;2.83;;;2.00;;
13847;SDS011;6994;49.752;6.094;2022-09-01T13:57:40;2.55;;;2.35;;
13847;SDS011;6994;49.752;6.094;2022-09-01T14:00:09;6.35;;;2.55;;
13847;SDS011;6994;49.752;6.094;2022-09-01T14:02:39;2.28;;;2.17;;
13847;SDS011;6994;49.752;6.094;2022-09-01T14:05:05;2.65;;;2.45;;
13847;SDS011;6994;49.752;6.094;2022-09-01T14:07:32;4.85;;;2.40;;
13847;SDS011;6994;49.752;6.094;2022-09-01T14:10:00;4.05;;;2.80;;
13847;SDS011;6994;49.752;6.094;2022-09-01T14:12:27;2.55;;;2.35;;
13847;SDS011;6994;49.752;6.094;2022-09-01T14:14:54;3.85;;;2.40;;
13847;SDS011;6994;49.752;6.094;2022-09-01T14:17:21;3.53;;;2.70;;
13847;SDS011;6994;49.752;6.094;2022-09-01T14:19:49;3.28;;;2.83;;
13847;SDS011;6994;49.752;6.094;2022-09-01T14:22:16;3.85;;;2.70;;
13847;SDS011;6994;49.752;6.094;2022-09-01T14:24:44;2.67;;;2.47;;
13847;SDS011;6994;49.752;6.094;2022-09-01T14:27:12;3.65;;;2.53;;
13847;SDS011;6994;49.752;6.094;2022-09-01T14:29:39;2.67;;;2.40;;
13847;SDS011;6994;49.752;6.094;2022-09-01T14:32:06;2.72;;;2.53;;
13847;SDS011;6994;49.752;6.094;2022-09-01T14:34:33;4.28;;;3.08;;
13847;SDS011;6994;49.752;6.094;2022-09-01T14:37:00;2.72;;;2.53;;
13847;SDS011;6994;49.752;6.094;2022-09-01T14:39:28;3.45;;;2.70;;
13847;SDS011;6994;49.752;6.094;2022-09-01T14:41:55;6.30;;;2.90;;
13847;SDS011;6994;49.752;6.094;2022-09-01T14:44:22;4.53;;;2.42;;
13847;SDS011;6994;49.752;6.094;2022-09-01T14:46:49;4.22;;;2.53;;
13847;SDS011;6994;49.752;6.094;2022-09-01T14:49:17;3.40;;;2.78;;
13847;SDS011;6994;49.752;6.094;2022-09-01T14:51:45;2.97;;;2.67;;
13847;SDS011;6994;49.752;6.094;2022-09-01T14:54:13;2.72;;;2.53;;
13847;SDS011;6994;49.752;6.094;2022-09-01T14:56:40;2.87;;;2.53;;
13847;SDS011;6994;49.752;6.094;2022-09-01T14:59:07;2.83;;;2.35;;
13847;SDS011;6994;49.752;6.094;2022-09-01T15:01:35;2.80;;;2.50;;
13847;SDS011;6994;49.752;6.094;2022-09-01T15:04:03;2.60;;;2.40;;
13847;SDS011;6994;49.752;6.094;2022-09-01T15:06:31;2.58;;;2.37;;
13847;SDS011;6994;49.752;6.094;2022-09-01T15:08:58;5.90;;;2.30;;
13847;SDS011;6994;49.752;6.094;2022-09-01T15:11:25;4.18;;;3.12;;
13847;SDS011;6994;49.752;6.094;2022-09-01T15:13:52;7.37;;;6.68;;
13847;SDS011;6994;49.752;6.094;2022-09-01T15:16:21;4.93;;;3.35;;
13847;SDS011;6994;49.752;6.094;2022-09-01T15:18:47;6.15;;;3.15;;
13847;SDS011;6994;49.752;6.094;2022-09-01T15:21:22;3.65;;;2.25;;
13847;SDS011;6994;49.752;6.094;2022-09-01T15:23:44;4.35;;;2.65;;
13847;SDS011;6994;49.752;6.094;2022-09-01T15:26:11;2.58;;;2.37;;
13847;SDS011;6994;49.752;6.094;2022-09-01T15:28:39;2.97;;;2.40;;
13847;SDS011;6994;49.752;6.094;2022-09-01T15:31:07;2.60;;;2.40;;
13847;SDS011;6994;49.752;6.094;2022-09-01T15:33:35;3.05;;;2.70;;
13847;SDS011;6994;49.752;6.094;2022-09-01T15:36:03;3.80;;;2.33;;
13847;SDS011;6994;49.752;6.094;2022-09-01T15:38:31;2.72;;;2.37;;
13847;SDS011;6994;49.752;6.094;2022-09-01T15:40:59;4.07;;;2.30;;
13847;SDS011;6994;49.752;6.094;2022-09-01T15:43:27;2.83;;;2.40;;
13847;SDS011;6994;49.752;6.094;2022-09-01T15:45:58;1.95;;;1.85;;
13847;SDS011;6994;49.752;6.094;2022-09-01T15:48:26;2.40;;;2.20;;
13847;SDS011;6994;49.752;6.094;2022-09-01T15:50:52;2.42;;;2.30;;